sensor_id;sensor_type;location;lat;lon;timestamp;temperature;humidity
55211;DHT22;41082;52.822;6.666;2024-03-07T00:02:08;6.00;99.90
55211;DHT22;41082;52.822;6.666;2024-03-07T00:04:34;6.00;99.90
55211;DHT22;41082;52.822;6.666;2024-03-07T00:07:04;6.00;99.90
55211;DHT22;41082;52.822;6.666;2024-03-07T00:09:33;5.90;99.90
55211;DHT22;41082;52.822;6.666;2024-03-07T00:12:00;5.90;99.90
55211;DHT22;41082;52.822;6.666;2024-03-07T00:14:26;5.90;99.90
55211;DHT22;41082;52.822;6.666;2024-03-07T00:16:55;5.80;99.90
55211;DHT22;41082;52.822;6.666;2024-03-07T00:19:22;5.80;99.90
55211;DHT22;41082;52.822;6.666;2024-03-07T00:21:51;5.70;99.90
55211;DHT22;41082;52.822;6.666;2024-03-07T00:24:17;5.70;99.90
55211;DHT22;41082;52.822;6.666;2024-03-07T00:26:42;5.70;99.90
55211;DHT22;41082;52.822;6.666;2024-03-07T00:29:08;5.60;99.90
55211;DHT22;41082;52.822;6.666;2024-03-07T00:31:34;5.60;99.90
55211;DHT22;41082;52.822;6.666;2024-03-07T00:33:59;5.50;99.90
55211;DHT22;41082;52.822;6.666;2024-03-07T00:36:25;5.50;99.90
55211;DHT22;41082;52.822;6.666;2024-03-07T00:38:52;5.50;99.90
55211;DHT22;41082;52.822;6.666;2024-03-07T00:41:18;5.40;99.90
55211;DHT22;41082;52.822;6.666;2024-03-07T00:43:44;5.40;99.90
55211;DHT22;41082;52.822;6.666;2024-03-07T00:46:10;5.40;99.90
55211;DHT22;41082;52.822;6.666;2024-03-07T00:48:37;5.40;99.90
55211;DHT22;41082;52.822;6.666;2024-03-07T00:51:03;5.30;99.90
55211;DHT22;41082;52.822;6.666;2024-03-07T00:53:29;5.30;99.90
55211;DHT22;41082;52.822;6.666;2024-03-07T00:55:55;5.30;99.90
55211;DHT22;41082;52.822;6.666;2024-03-07T00:58:21;5.20;99.90
55211;DHT22;41082;52.822;6.666;2024-03-07T01:00:46;5.20;99.90
55211;DHT22;41082;52.822;6.666;2024-03-07T01:03:12;5.20;99.90
55211;DHT22;41082;52.822;6.666;2024-03-07T01:05:40;5.20;99.90
55211;DHT22;41082;52.822;6.666;2024-03-07T01:08:06;5.20;99.90
55211;DHT22;41082;52.822;6.666;2024-03-07T01:10:31;5.10;99.90
55211;DHT22;41082;52.822;6.666;2024-03-07T01:12:57;5.10;99.90
55211;DHT22;41082;52.822;6.666;2024-03-07T01:15:27;5.10;99.90
55211;DHT22;41082;52.822;6.666;2024-03-07T01:17:53;5.10;99.90
55211;DHT22;41082;52.822;6.666;2024-03-07T01:20:18;5.10;99.90
55211;DHT22;41082;52.822;6.666;2024-03-07T01:22:44;5.10;99.90
55211;DHT22;41082;52.822;6.666;2024-03-07T01:25:10;5.00;99.90
55211;DHT22;41082;52.822;6.666;2024-03-07T01:27:38;5.00;99.90
55211;DHT22;41082;52.822;6.666;2024-03-07T01:30:04;4.90;99.90
55211;DHT22;41082;52.822;6.666;2024-03-07T01:32:33;4.90;99.90
55211;DHT22;41082;52.822;6.666;2024-03-07T01:34:59;4.90;99.90
55211;DHT22;41082;52.822;6.666;2024-03-07T01:37:24;4.90;99.90
55211;DHT22;41082;52.822;6.666;2024-03-07T01:39:50;4.80;99.90
55211;DHT22;41082;52.822;6.666;2024-03-07T01:42:16;4.80;99.90
55211;DHT22;41082;52.822;6.666;2024-03-07T01:44:41;4.80;99.90
55211;DHT22;41082;52.822;6.666;2024-03-07T01:47:09;4.70;99.90
55211;DHT22;41082;52.822;6.666;2024-03-07T01:49:36;4.70;99.90
55211;DHT22;41082;52.822;6.666;2024-03-07T01:52:03;4.60;99.90
55211;DHT22;41082;52.822;6.666;2024-03-07T01:54:30;4.60;99.90
55211;DHT22;41082;52.822;6.666;2024-03-07T01:56:56;4.60;99.90
55211;DHT22;41082;52.822;6.666;2024-03-07T01:59:22;4.60;99.90
55211;DHT22;41082;52.822;6.666;2024-03-07T02:01:50;4.50;99.90
55211;DHT22;41082;52.822;6.666;2024-03-07T02:04:16;4.50;99.90
55211;DHT22;41082;52.822;6.666;2024-03-07T02:06:41;4.50;99.90
55211;DHT22;41082;52.822;6.666;2024-03-07T02:09:07;4.50;99.90
55211;DHT22;41082;52.822;6.666;2024-03-07T02:11:33;4.40;99.90
55211;DHT22;41082;52.822;6.666;2024-03-07T02:13:58;4.40;99.90
55211;DHT22;41082;52.822;6.666;2024-03-07T02:16:24;4.40;99.90
55211;DHT22;41082;52.822;6.666;2024-03-07T02:18:50;4.30;99.90
55211;DHT22;41082;52.822;6.666;2024-03-07T02:21:16;4.30;99.90
55211;DHT22;41082;52.822;6.666;2024-03-07T02:23:42;4.30;99.90
55211;DHT22;41082;52.822;6.666;2024-03-07T02:26:07;4.30;99.90
55211;DHT22;41082;52.822;6.666;2024-03-07T02:28:34;4.20;99.90
55211;DHT22;41082;52.822;6.666;2024-03-07T02:31:00;4.20;99.90
55211;DHT22;41082;52.822;6.666;2024-03-07T02:33:26;4.20;99.90
55211;DHT22;41082;52.822;6.666;2024-03-07T02:35:52;4.10;99.90
55211;DHT22;41082;52.822;6.666;2024-03-07T02:38:18;4.10;99.90
55211;DHT22;41082;52.822;6.666;2024-03-07T02:40:43;4.10;99.90
55211;DHT22;41082;52.822;6.666;2024-03-07T02:43:09;4.00;99.90
55211;DHT22;41082;52.822;6.666;2024-03-07T02:45:35;4.00;99.90
55211;DHT22;41082;52.822;6.666;2024-03-07T02:48:00;4.00;99.90
55211;DHT22;41082;52.822;6.666;2024-03-07T02:50:26;4.00;99.90
55211;DHT22;41082;52.822;6.666;2024-03-07T02:52:51;3.90;99.90
55211;DHT22;41082;52.822;6.666;2024-03-07T02:55:18;3.90;99.90
55211;DHT22;41082;52.822;6.666;2024-03-07T02:57:44;3.80;99.90
55211;DHT22;41082;52.822;6.666;2024-03-07T03:00:11;3.80;99.90
55211;DHT22;41082;52.822;6.666;2024-03-07T03:02:47;3.80;99.90
55211;DHT22;41082;52.822;6.666;2024-03-07T03:05:14;3.80;99.90
55211;DHT22;41082;52.822;6.666;2024-03-07T03:07:40;3.70;99.90
55211;DHT22;41082;52.822;6.666;2024-03-07T03:10:07;3.80;99.90
55211;DHT22;41082;52.822;6.666;2024-03-07T03:12:37;3.70;99.90
55211;DHT22;41082;52.822;6.666;2024-03-07T03:15:03;3.70;99.90
55211;DHT22;41082;52.822;6.666;2024-03-07T03:17:30;3.70;99.90
55211;DHT22;41082;52.822;6.666;2024-03-07T03:19:56;3.70;99.90
55211;DHT22;41082;52.822;6.666;2024-03-07T03:22:22;3.70;99.90
55211;DHT22;41082;52.822;6.666;2024-03-07T03:24:47;3.60;99.90
55211;DHT22;41082;52.822;6.666;2024-03-07T03:27:13;3.60;99.90
55211;DHT22;41082;52.822;6.666;2024-03-07T03:29:39;3.60;99.90
55211;DHT22;41082;52.822;6.666;2024-03-07T03:32:06;3.60;99.90
55211;DHT22;41082;52.822;6.666;2024-03-07T03:34:33;3.60;99.90
55211;DHT22;41082;52.822;6.666;2024-03-07T03:36:59;3.50;99.90
55211;DHT22;41082;52.822;6.666;2024-03-07T03:39:25;3.50;99.90
55211;DHT22;41082;52.822;6.666;2024-03-07T03:41:52;3.50;99.90
55211;DHT22;41082;52.822;6.666;2024-03-07T03:44:18;3.50;99.90
55211;DHT22;41082;52.822;6.666;2024-03-07T03:46:44;3.50;99.90
55211;DHT22;41082;52.822;6.666;2024-03-07T03:49:09;3.50;99.90
55211;DHT22;41082;52.822;6.666;2024-03-07T03:51:35;3.50;99.90
55211;DHT22;41082;52.822;6.666;2024-03-07T03:54:01;3.50;99.90
55211;DHT22;41082;52.822;6.666;2024-03-07T03:56:28;3.40;99.90
55211;DHT22;41082;52.822;6.666;2024-03-07T03:58:53;3.40;99.90
55211;DHT22;41082;52.822;6.666;2024-03-07T04:01:19;3.40;99.90
55211;DHT22;41082;52.822;6.666;2024-03-07T04:03:44;3.40;99.90
55211;DHT22;41082;52.822;6.666;2024-03-07T04:06:13;3.40;99.90
55211;DHT22;41082;52.822;6.666;2024-03-07T04:08:39;3.30;99.90
55211;DHT22;41082;52.822;6.666;2024-03-07T04:11:05;3.20;99.90
55211;DHT22;41082;52.822;6.666;2024-03-07T04:13:30;3.30;99.90
55211;DHT22;41082;52.822;6.666;2024-03-07T04:15:57;3.20;99.90
55211;DHT22;41082;52.822;6.666;2024-03-07T04:18:22;3.20;99.90
55211;DHT22;41082;52.822;6.666;2024-03-07T04:20:48;3.20;99.90
55211;DHT22;41082;52.822;6.666;2024-03-07T04:23:14;3.20;99.90
55211;DHT22;41082;52.822;6.666;2024-03-07T04:25:40;3.20;99.90
55211;DHT22;41082;52.822;6.666;2024-03-07T04:28:06;3.20;99.90
55211;DHT22;41082;52.822;6.666;2024-03-07T04:30:33;3.10;99.90
55211;DHT22;41082;52.822;6.666;2024-03-07T04:32:58;3.00;99.90
55211;DHT22;41082;52.822;6.666;2024-03-07T04:35:24;3.10;99.90
55211;DHT22;41082;52.822;6.666;2024-03-07T04:37:50;3.00;99.90
55211;DHT22;41082;52.822;6.666;2024-03-07T04:40:16;3.00;99.90
55211;DHT22;41082;52.822;6.666;2024-03-07T04:42:48;3.00;99.90
55211;DHT22;41082;52.822;6.666;2024-03-07T04:45:18;3.00;99.90
55211;DHT22;41082;52.822;6.666;2024-03-07T04:47:44;3.00;99.90
55211;DHT22;41082;52.822;6.666;2024-03-07T04:50:10;3.00;99.90
55211;DHT22;41082;52.822;6.666;2024-03-07T04:52:39;3.00;99.90
55211;DHT22;41082;52.822;6.666;2024-03-07T04:55:09;2.90;99.90
55211;DHT22;41082;52.822;6.666;2024-03-07T04:57:38;2.90;99.90
55211;DHT22;41082;52.822;6.666;2024-03-07T05:00:09;2.90;99.90
55211;DHT22;41082;52.822;6.666;2024-03-07T05:02:46;2.90;99.90
55211;DHT22;41082;52.822;6.666;2024-03-07T05:05:12;2.80;99.90
55211;DHT22;41082;52.822;6.666;2024-03-07T05:07:38;2.80;99.90
55211;DHT22;41082;52.822;6.666;2024-03-07T05:10:06;2.80;99.90
55211;DHT22;41082;52.822;6.666;2024-03-07T05:12:32;2.80;99.90
55211;DHT22;41082;52.822;6.666;2024-03-07T05:14:58;2.70;99.90
55211;DHT22;41082;52.822;6.666;2024-03-07T05:17:24;2.70;99.90
55211;DHT22;41082;52.822;6.666;2024-03-07T05:19:50;2.70;99.90
55211;DHT22;41082;52.822;6.666;2024-03-07T05:22:15;2.70;99.90
55211;DHT22;41082;52.822;6.666;2024-03-07T05:24:42;2.60;99.90
55211;DHT22;41082;52.822;6.666;2024-03-07T05:27:08;2.70;99.90
55211;DHT22;41082;52.822;6.666;2024-03-07T05:29:37;2.70;99.90
55211;DHT22;41082;52.822;6.666;2024-03-07T05:32:22;2.70;99.90
55211;DHT22;41082;52.822;6.666;2024-03-07T05:34:48;2.70;99.90
55211;DHT22;41082;52.822;6.666;2024-03-07T05:37:14;2.60;99.90
55211;DHT22;41082;52.822;6.666;2024-03-07T05:39:39;2.60;99.90
55211;DHT22;41082;52.822;6.666;2024-03-07T05:42:06;2.60;99.90
55211;DHT22;41082;52.822;6.666;2024-03-07T05:44:33;2.60;99.90
55211;DHT22;41082;52.822;6.666;2024-03-07T05:46:58;2.60;99.90
55211;DHT22;41082;52.822;6.666;2024-03-07T05:49:24;2.50;99.90
55211;DHT22;41082;52.822;6.666;2024-03-07T05:51:49;2.50;99.90
55211;DHT22;41082;52.822;6.666;2024-03-07T05:54:15;2.50;99.90
55211;DHT22;41082;52.822;6.666;2024-03-07T05:56:41;2.50;99.90
55211;DHT22;41082;52.822;6.666;2024-03-07T05:59:08;2.50;99.90
55211;DHT22;41082;52.822;6.666;2024-03-07T06:01:35;2.50;99.90
55211;DHT22;41082;52.822;6.666;2024-03-07T06:04:02;2.40;99.90
55211;DHT22;41082;52.822;6.666;2024-03-07T06:06:31;2.50;99.90
55211;DHT22;41082;52.822;6.666;2024-03-07T06:08:59;2.50;99.90
55211;DHT22;41082;52.822;6.666;2024-03-07T06:11:25;2.40;99.90
55211;DHT22;41082;52.822;6.666;2024-03-07T06:13:51;2.40;99.90
55211;DHT22;41082;52.822;6.666;2024-03-07T06:16:17;2.40;99.90
55211;DHT22;41082;52.822;6.666;2024-03-07T06:18:43;2.40;99.90
55211;DHT22;41082;52.822;6.666;2024-03-07T06:21:12;2.40;99.90
55211;DHT22;41082;52.822;6.666;2024-03-07T06:23:39;2.40;99.90
55211;DHT22;41082;52.822;6.666;2024-03-07T06:26:04;2.40;99.90
55211;DHT22;41082;52.822;6.666;2024-03-07T06:28:38;2.40;99.90
55211;DHT22;41082;52.822;6.666;2024-03-07T06:31:04;2.40;99.90
55211;DHT22;41082;52.822;6.666;2024-03-07T06:33:33;2.40;99.90
55211;DHT22;41082;52.822;6.666;2024-03-07T06:35:59;2.40;99.90
55211;DHT22;41082;52.822;6.666;2024-03-07T06:38:26;2.40;99.90
55211;DHT22;41082;52.822;6.666;2024-03-07T06:40:52;2.40;99.90
55211;DHT22;41082;52.822;6.666;2024-03-07T06:43:18;2.40;99.90
55211;DHT22;41082;52.822;6.666;2024-03-07T06:45:44;2.40;99.90
55211;DHT22;41082;52.822;6.666;2024-03-07T06:48:11;2.40;99.90
55211;DHT22;41082;52.822;6.666;2024-03-07T06:50:40;2.40;99.90
55211;DHT22;41082;52.822;6.666;2024-03-07T06:53:06;2.40;99.90
55211;DHT22;41082;52.822;6.666;2024-03-07T06:55:32;2.50;99.90
55211;DHT22;41082;52.822;6.666;2024-03-07T06:57:59;2.50;99.90
55211;DHT22;41082;52.822;6.666;2024-03-07T07:00:25;2.50;99.90
55211;DHT22;41082;52.822;6.666;2024-03-07T07:02:52;2.50;99.90
55211;DHT22;41082;52.822;6.666;2024-03-07T07:05:20;2.50;99.90
55211;DHT22;41082;52.822;6.666;2024-03-07T07:07:47;2.50;99.90
55211;DHT22;41082;52.822;6.666;2024-03-07T07:10:13;2.60;99.90
55211;DHT22;41082;52.822;6.666;2024-03-07T07:12:47;2.60;99.90
55211;DHT22;41082;52.822;6.666;2024-03-07T07:15:14;2.60;99.90
55211;DHT22;41082;52.822;6.666;2024-03-07T07:17:41;2.70;99.90
55211;DHT22;41082;52.822;6.666;2024-03-07T07:20:07;2.70;99.90
55211;DHT22;41082;52.822;6.666;2024-03-07T07:22:39;2.70;99.90
55211;DHT22;41082;52.822;6.666;2024-03-07T07:25:05;2.80;99.90
55211;DHT22;41082;52.822;6.666;2024-03-07T07:27:40;2.80;99.90
55211;DHT22;41082;52.822;6.666;2024-03-07T07:30:08;2.90;99.90
55211;DHT22;41082;52.822;6.666;2024-03-07T07:32:34;2.90;99.90
55211;DHT22;41082;52.822;6.666;2024-03-07T07:35:02;3.00;99.90
55211;DHT22;41082;52.822;6.666;2024-03-07T07:37:27;3.00;99.90
55211;DHT22;41082;52.822;6.666;2024-03-07T07:39:53;3.10;99.90
55211;DHT22;41082;52.822;6.666;2024-03-07T07:42:18;3.20;99.90
55211;DHT22;41082;52.822;6.666;2024-03-07T07:44:45;3.20;99.90
55211;DHT22;41082;52.822;6.666;2024-03-07T07:47:10;3.30;99.90
55211;DHT22;41082;52.822;6.666;2024-03-07T07:49:39;3.40;99.90
55211;DHT22;41082;52.822;6.666;2024-03-07T07:52:05;3.40;99.90
55211;DHT22;41082;52.822;6.666;2024-03-07T07:54:33;3.40;99.90
55211;DHT22;41082;52.822;6.666;2024-03-07T07:56:58;3.50;99.90
55211;DHT22;41082;52.822;6.666;2024-03-07T07:59:24;3.50;99.90
55211;DHT22;41082;52.822;6.666;2024-03-07T08:01:49;3.60;99.90
55211;DHT22;41082;52.822;6.666;2024-03-07T08:04:15;3.70;99.90
55211;DHT22;41082;52.822;6.666;2024-03-07T08:06:41;3.70;99.90
55211;DHT22;41082;52.822;6.666;2024-03-07T08:09:07;3.70;99.90
55211;DHT22;41082;52.822;6.666;2024-03-07T08:11:36;3.70;99.90
55211;DHT22;41082;52.822;6.666;2024-03-07T08:14:04;3.70;99.90
55211;DHT22;41082;52.822;6.666;2024-03-07T08:16:31;3.80;99.90
55211;DHT22;41082;52.822;6.666;2024-03-07T08:18:57;3.80;99.90
55211;DHT22;41082;52.822;6.666;2024-03-07T08:21:23;3.70;99.90
55211;DHT22;41082;52.822;6.666;2024-03-07T08:23:49;3.80;99.90
55211;DHT22;41082;52.822;6.666;2024-03-07T08:26:23;3.70;99.90
55211;DHT22;41082;52.822;6.666;2024-03-07T08:28:56;3.80;99.90
55211;DHT22;41082;52.822;6.666;2024-03-07T08:31:21;3.80;99.90
55211;DHT22;41082;52.822;6.666;2024-03-07T08:33:47;3.80;99.90
55211;DHT22;41082;52.822;6.666;2024-03-07T08:36:13;3.80;99.90
55211;DHT22;41082;52.822;6.666;2024-03-07T08:38:38;3.80;99.90
55211;DHT22;41082;52.822;6.666;2024-03-07T08:41:05;3.80;99.90
55211;DHT22;41082;52.822;6.666;2024-03-07T08:43:30;3.80;99.90
55211;DHT22;41082;52.822;6.666;2024-03-07T08:45:56;3.80;99.90
55211;DHT22;41082;52.822;6.666;2024-03-07T08:48:22;3.80;99.90
55211;DHT22;41082;52.822;6.666;2024-03-07T08:50:48;3.80;99.90
55211;DHT22;41082;52.822;6.666;2024-03-07T08:53:13;3.80;99.90
55211;DHT22;41082;52.822;6.666;2024-03-07T08:55:39;3.80;99.90
55211;DHT22;41082;52.822;6.666;2024-03-07T08:58:05;3.80;99.90
55211;DHT22;41082;52.822;6.666;2024-03-07T09:00:31;3.90;99.90
55211;DHT22;41082;52.822;6.666;2024-03-07T09:02:58;3.80;99.90
55211;DHT22;41082;52.822;6.666;2024-03-07T09:05:25;3.90;99.90
55211;DHT22;41082;52.822;6.666;2024-03-07T09:07:52;3.90;99.90
55211;DHT22;41082;52.822;6.666;2024-03-07T09:10:18;4.00;99.90
55211;DHT22;41082;52.822;6.666;2024-03-07T09:12:44;4.00;99.90
55211;DHT22;41082;52.822;6.666;2024-03-07T09:15:10;4.10;99.90
55211;DHT22;41082;52.822;6.666;2024-03-07T09:17:36;4.00;99.90
55211;DHT22;41082;52.822;6.666;2024-03-07T09:20:06;4.10;99.90
55211;DHT22;41082;52.822;6.666;2024-03-07T09:22:32;4.00;99.90
55211;DHT22;41082;52.822;6.666;2024-03-07T09:24:58;4.10;99.90
55211;DHT22;41082;52.822;6.666;2024-03-07T09:27:24;4.10;99.90
55211;DHT22;41082;52.822;6.666;2024-03-07T09:29:50;4.10;99.90
55211;DHT22;41082;52.822;6.666;2024-03-07T09:32:17;4.10;99.90
55211;DHT22;41082;52.822;6.666;2024-03-07T09:34:43;4.10;99.90
55211;DHT22;41082;52.822;6.666;2024-03-07T09:37:08;4.20;99.90
55211;DHT22;41082;52.822;6.666;2024-03-07T09:39:34;4.30;99.90
55211;DHT22;41082;52.822;6.666;2024-03-07T09:42:01;4.40;99.90
55211;DHT22;41082;52.822;6.666;2024-03-07T09:44:28;4.40;99.90
55211;DHT22;41082;52.822;6.666;2024-03-07T09:46:57;4.40;99.90
55211;DHT22;41082;52.822;6.666;2024-03-07T09:49:24;4.40;99.90
55211;DHT22;41082;52.822;6.666;2024-03-07T09:51:51;4.50;99.90
55211;DHT22;41082;52.822;6.666;2024-03-07T09:54:21;4.50;99.90
55211;DHT22;41082;52.822;6.666;2024-03-07T09:56:50;4.60;99.90
55211;DHT22;41082;52.822;6.666;2024-03-07T09:59:19;4.70;99.90
55211;DHT22;41082;52.822;6.666;2024-03-07T10:01:47;4.80;99.90
55211;DHT22;41082;52.822;6.666;2024-03-07T10:04:20;4.80;99.90
55211;DHT22;41082;52.822;6.666;2024-03-07T10:06:49;4.90;99.90
55211;DHT22;41082;52.822;6.666;2024-03-07T10:09:18;4.90;99.90
55211;DHT22;41082;52.822;6.666;2024-03-07T10:11:56;5.00;99.90
55211;DHT22;41082;52.822;6.666;2024-03-07T10:14:21;5.10;99.90
55211;DHT22;41082;52.822;6.666;2024-03-07T10:16:47;5.20;99.90
55211;DHT22;41082;52.822;6.666;2024-03-07T10:19:12;5.20;99.90
55211;DHT22;41082;52.822;6.666;2024-03-07T10:21:41;5.30;99.90
55211;DHT22;41082;52.822;6.666;2024-03-07T10:24:07;5.30;99.90
55211;DHT22;41082;52.822;6.666;2024-03-07T10:26:40;5.40;99.90
55211;DHT22;41082;52.822;6.666;2024-03-07T10:29:06;5.60;99.90
55211;DHT22;41082;52.822;6.666;2024-03-07T10:31:34;5.60;99.90
55211;DHT22;41082;52.822;6.666;2024-03-07T10:34:00;5.70;99.90
55211;DHT22;41082;52.822;6.666;2024-03-07T10:36:31;5.80;99.90
55211;DHT22;41082;52.822;6.666;2024-03-07T10:39:01;6.00;99.90
55211;DHT22;41082;52.822;6.666;2024-03-07T10:44:10;6.20;99.90
55211;DHT22;41082;52.822;6.666;2024-03-07T10:46:39;6.30;99.90
55211;DHT22;41082;52.822;6.666;2024-03-07T10:49:07;6.30;99.90
55211;DHT22;41082;52.822;6.666;2024-03-07T10:51:40;6.40;99.90
55211;DHT22;41082;52.822;6.666;2024-03-07T10:54:33;6.40;99.90
55211;DHT22;41082;52.822;6.666;2024-03-07T10:59:56;6.60;99.90
55211;DHT22;41082;52.822;6.666;2024-03-07T11:04:53;6.70;99.90
55211;DHT22;41082;52.822;6.666;2024-03-07T11:07:23;6.70;99.90
55211;DHT22;41082;52.822;6.666;2024-03-07T11:09:49;6.80;99.90
55211;DHT22;41082;52.822;6.666;2024-03-07T11:12:19;6.90;99.90
55211;DHT22;41082;52.822;6.666;2024-03-07T11:14:48;6.90;99.90
55211;DHT22;41082;52.822;6.666;2024-03-07T11:17:15;7.00;99.90
55211;DHT22;41082;52.822;6.666;2024-03-07T11:19:41;7.00;99.90
55211;DHT22;41082;52.822;6.666;2024-03-07T11:22:07;7.10;99.90
55211;DHT22;41082;52.822;6.666;2024-03-07T11:24:41;7.10;99.90
55211;DHT22;41082;52.822;6.666;2024-03-07T11:27:09;7.10;99.90
55211;DHT22;41082;52.822;6.666;2024-03-07T11:29:39;7.10;99.90
55211;DHT22;41082;52.822;6.666;2024-03-07T11:32:14;7.10;99.90
55211;DHT22;41082;52.822;6.666;2024-03-07T11:34:41;7.10;99.90
55211;DHT22;41082;52.822;6.666;2024-03-07T11:37:10;7.10;99.90
55211;DHT22;41082;52.822;6.666;2024-03-07T11:39:46;7.10;99.90
55211;DHT22;41082;52.822;6.666;2024-03-07T11:42:28;7.10;99.90
55211;DHT22;41082;52.822;6.666;2024-03-07T11:44:55;7.10;99.90
55211;DHT22;41082;52.822;6.666;2024-03-07T11:47:22;7.10;99.90
55211;DHT22;41082;52.822;6.666;2024-03-07T11:49:53;7.20;99.90
55211;DHT22;41082;52.822;6.666;2024-03-07T11:52:19;7.20;99.90
55211;DHT22;41082;52.822;6.666;2024-03-07T11:54:45;7.30;99.90
55211;DHT22;41082;52.822;6.666;2024-03-07T11:57:19;7.40;99.90
55211;DHT22;41082;52.822;6.666;2024-03-07T11:59:47;7.40;99.90
55211;DHT22;41082;52.822;6.666;2024-03-07T12:02:18;7.40;99.90
55211;DHT22;41082;52.822;6.666;2024-03-07T12:04:47;7.50;99.90
55211;DHT22;41082;52.822;6.666;2024-03-07T12:07:15;7.50;99.90
55211;DHT22;41082;52.822;6.666;2024-03-07T12:09:45;7.60;99.90
55211;DHT22;41082;52.822;6.666;2024-03-07T12:12:17;7.60;99.90
55211;DHT22;41082;52.822;6.666;2024-03-07T12:14:43;7.70;99.90
55211;DHT22;41082;52.822;6.666;2024-03-07T12:17:09;7.60;99.90
55211;DHT22;41082;52.822;6.666;2024-03-07T12:19:35;7.60;99.90
55211;DHT22;41082;52.822;6.666;2024-03-07T12:22:02;7.60;99.90
55211;DHT22;41082;52.822;6.666;2024-03-07T12:24:28;7.60;99.90
55211;DHT22;41082;52.822;6.666;2024-03-07T12:27:08;7.60;99.90
55211;DHT22;41082;52.822;6.666;2024-03-07T12:29:36;7.50;99.90
55211;DHT22;41082;52.822;6.666;2024-03-07T12:32:07;7.50;99.90
55211;DHT22;41082;52.822;6.666;2024-03-07T12:34:34;7.50;99.90
55211;DHT22;41082;52.822;6.666;2024-03-07T12:37:04;7.50;99.90
55211;DHT22;41082;52.822;6.666;2024-03-07T12:39:32;7.50;99.90
55211;DHT22;41082;52.822;6.666;2024-03-07T12:42:03;7.40;99.90
55211;DHT22;41082;52.822;6.666;2024-03-07T12:44:48;7.50;99.90
55211;DHT22;41082;52.822;6.666;2024-03-07T12:47:16;7.40;99.90
55211;DHT22;41082;52.822;6.666;2024-03-07T12:49:42;7.40;99.90
55211;DHT22;41082;52.822;6.666;2024-03-07T12:52:09;7.40;99.90
55211;DHT22;41082;52.822;6.666;2024-03-07T12:54:35;7.40;99.90
55211;DHT22;41082;52.822;6.666;2024-03-07T12:57:09;7.40;99.90
55211;DHT22;41082;52.822;6.666;2024-03-07T12:59:36;7.50;99.90
55211;DHT22;41082;52.822;6.666;2024-03-07T13:02:04;7.50;99.90
55211;DHT22;41082;52.822;6.666;2024-03-07T13:04:35;7.50;99.90
55211;DHT22;41082;52.822;6.666;2024-03-07T13:07:03;7.50;99.90
55211;DHT22;41082;52.822;6.666;2024-03-07T13:09:36;7.50;99.90
55211;DHT22;41082;52.822;6.666;2024-03-07T13:12:03;7.50;99.90
55211;DHT22;41082;52.822;6.666;2024-03-07T13:14:30;7.50;99.90
55211;DHT22;41082;52.822;6.666;2024-03-07T13:19:28;7.50;99.90
55211;DHT22;41082;52.822;6.666;2024-03-07T13:21:54;7.50;99.90
55211;DHT22;41082;52.822;6.666;2024-03-07T13:24:22;7.50;99.90
55211;DHT22;41082;52.822;6.666;2024-03-07T13:26:48;7.40;99.90
55211;DHT22;41082;52.822;6.666;2024-03-07T13:29:14;7.50;99.90
55211;DHT22;41082;52.822;6.666;2024-03-07T13:31:42;7.50;99.90
55211;DHT22;41082;52.822;6.666;2024-03-07T13:34:11;7.60;99.90
55211;DHT22;41082;52.822;6.666;2024-03-07T13:36:41;7.70;99.90
55211;DHT22;41082;52.822;6.666;2024-03-07T13:39:10;7.80;99.90
55211;DHT22;41082;52.822;6.666;2024-03-07T13:41:46;7.90;99.90
55211;DHT22;41082;52.822;6.666;2024-03-07T13:44:14;8.00;99.90
55211;DHT22;41082;52.822;6.666;2024-03-07T13:46:40;8.00;99.90
55211;DHT22;41082;52.822;6.666;2024-03-07T13:49:05;8.00;99.90
55211;DHT22;41082;52.822;6.666;2024-03-07T13:51:40;8.00;99.90
55211;DHT22;41082;52.822;6.666;2024-03-07T13:54:16;8.00;99.90
55211;DHT22;41082;52.822;6.666;2024-03-07T13:57:27;7.90;99.90
55211;DHT22;41082;52.822;6.666;2024-03-07T14:00:09;7.90;99.90
55211;DHT22;41082;52.822;6.666;2024-03-07T14:03:09;7.90;99.90
55211;DHT22;41082;52.822;6.666;2024-03-07T14:06:08;7.80;99.90
55211;DHT22;41082;52.822;6.666;2024-03-07T14:08:55;7.70;99.90
55211;DHT22;41082;52.822;6.666;2024-03-07T14:20:05;7.60;99.90
55211;DHT22;41082;52.822;6.666;2024-03-07T14:23:09;7.50;99.90
55211;DHT22;41082;52.822;6.666;2024-03-07T14:25:49;7.50;99.90
55211;DHT22;41082;52.822;6.666;2024-03-07T14:31:00;7.50;99.90
55211;DHT22;41082;52.822;6.666;2024-03-07T14:36:14;7.50;99.90
55211;DHT22;41082;52.822;6.666;2024-03-07T14:38:50;7.50;99.90
55211;DHT22;41082;52.822;6.666;2024-03-07T14:41:18;7.50;99.90
55211;DHT22;41082;52.822;6.666;2024-03-07T14:43:44;7.50;99.90
55211;DHT22;41082;52.822;6.666;2024-03-07T14:46:12;7.50;99.90
55211;DHT22;41082;52.822;6.666;2024-03-07T14:48:40;7.50;99.90
55211;DHT22;41082;52.822;6.666;2024-03-07T14:51:07;7.50;99.90
55211;DHT22;41082;52.822;6.666;2024-03-07T14:53:34;7.40;99.90
55211;DHT22;41082;52.822;6.666;2024-03-07T14:56:00;7.50;99.90
55211;DHT22;41082;52.822;6.666;2024-03-07T14:58:26;7.40;99.90
55211;DHT22;41082;52.822;6.666;2024-03-07T15:00:52;7.40;99.90
55211;DHT22;41082;52.822;6.666;2024-03-07T15:03:20;7.50;99.90
55211;DHT22;41082;52.822;6.666;2024-03-07T15:05:46;7.40;99.90
55211;DHT22;41082;52.822;6.666;2024-03-07T15:08:12;7.50;99.90
55211;DHT22;41082;52.822;6.666;2024-03-07T15:10:44;7.50;99.90
55211;DHT22;41082;52.822;6.666;2024-03-07T15:13:12;7.50;99.90
55211;DHT22;41082;52.822;6.666;2024-03-07T15:15:38;7.50;99.90
55211;DHT22;41082;52.822;6.666;2024-03-07T15:18:06;7.60;99.90
55211;DHT22;41082;52.822;6.666;2024-03-07T15:20:31;7.60;99.90
55211;DHT22;41082;52.822;6.666;2024-03-07T15:22:59;7.60;99.90
55211;DHT22;41082;52.822;6.666;2024-03-07T15:25:26;7.60;99.90
55211;DHT22;41082;52.822;6.666;2024-03-07T15:27:56;7.60;99.90
55211;DHT22;41082;52.822;6.666;2024-03-07T15:30:23;7.60;99.90
55211;DHT22;41082;52.822;6.666;2024-03-07T15:33:02;7.60;99.90
55211;DHT22;41082;52.822;6.666;2024-03-07T15:35:29;7.60;99.90
55211;DHT22;41082;52.822;6.666;2024-03-07T15:37:56;7.70;99.90
55211;DHT22;41082;52.822;6.666;2024-03-07T15:40:22;7.70;99.90
55211;DHT22;41082;52.822;6.666;2024-03-07T15:42:49;7.60;99.90
55211;DHT22;41082;52.822;6.666;2024-03-07T15:45:19;7.70;99.90
55211;DHT22;41082;52.822;6.666;2024-03-07T15:47:49;7.70;99.90
55211;DHT22;41082;52.822;6.666;2024-03-07T15:50:16;7.70;99.90
55211;DHT22;41082;52.822;6.666;2024-03-07T15:52:45;7.70;99.90
55211;DHT22;41082;52.822;6.666;2024-03-07T15:55:11;7.70;99.90
55211;DHT22;41082;52.822;6.666;2024-03-07T15:57:46;7.70;99.90
55211;DHT22;41082;52.822;6.666;2024-03-07T16:00:17;7.70;99.90
55211;DHT22;41082;52.822;6.666;2024-03-07T16:03:05;7.70;99.90
55211;DHT22;41082;52.822;6.666;2024-03-07T16:05:36;7.60;99.90
55211;DHT22;41082;52.822;6.666;2024-03-07T16:08:04;7.60;99.90
55211;DHT22;41082;52.822;6.666;2024-03-07T16:10:38;7.60;99.90
55211;DHT22;41082;52.822;6.666;2024-03-07T16:13:06;7.60;99.90
55211;DHT22;41082;52.822;6.666;2024-03-07T16:15:35;7.60;99.90